Time;durP1;ratioP1;P1;durP2;ratioP2;P2;SDS_P1;SDS_P2;PMS_P1;PMS_P2;Temp;Humidity;BMP_temperature;BMP_pressure;BME280_temperature;BME280_humidity;BME280_pressure;Samples;Min_cycle;Max_cycle;Signal;HPM_P1;HPM_P2
2022/09/13 00:00:49;;;;;;;4.30;3.28;;;17.00;99.20;;;;;;5071938;28;20020;-72
2022/09/13 00:03:14;;;;;;;4.57;3.40;;;17.00;99.20;;;;;;5072197;28;20381;-72
2022/09/13 00:05:40;;;;;;;3.83;3.20;;;17.00;99.60;;;;;;5072146;28;20033;-73
2022/09/13 00:08:07;;;;;;;5.55;3.65;;;17.00;99.40;;;;;;5071705;28;20021;-72
2022/09/13 00:10:34;;;;;;;7.03;3.30;;;16.90;99.40;;;;;;5071074;28;20060;-71
2022/09/13 00:13:00;;;;;;;4.97;3.42;;;16.90;99.60;;;;;;5072014;28;20028;-72
2022/09/13 00:15:26;;;;;;;6.35;3.55;;;16.90;99.90;;;;;;5071550;28;20102;-70
2022/09/13 00:17:52;;;;;;;6.93;4.15;;;16.90;99.90;;;;;;5071996;28;20404;-72
2022/09/13 00:20:18;;;;;;;4.25;3.20;;;16.80;99.90;;;;;;5071784;28;20116;-73
2022/09/13 00:22:43;;;;;;;9.27;3.60;;;16.80;99.90;;;;;;5071382;28;20321;-73
2022/09/13 00:25:09;;;;;;;4.40;3.30;;;16.80;99.90;;;;;;5071754;28;20052;-74
2022/09/13 00:27:36;;;;;;;5.68;3.47;;;16.80;99.90;;;;;;5071875;28;20365;-73
2022/09/13 00:30:04;;;;;;;4.55;3.33;;;16.70;99.90;;;;;;5071761;28;20021;-73
2022/09/13 00:32:30;;;;;;;6.95;3.60;;;16.70;99.90;;;;;;5071302;28;20064;-72
2022/09/13 00:34:55;;;;;;;6.20;3.33;;;16.70;99.90;;;;;;5071968;28;20028;-72
2022/09/13 00:37:21;;;;;;;4.50;3.35;;;16.70;99.90;;;;;;5071934;28;20024;-72
2022/09/13 00:39:46;;;;;;;7.47;3.85;;;16.60;99.90;;;;;;5071303;28;20070;-72
2022/09/13 00:42:13;;;;;;;7.05;3.63;;;16.60;99.90;;;;;;5071650;28;20181;-72
2022/09/13 00:44:58;;;;;;;7.97;3.35;;;16.60;99.90;;;;;;5072438;28;20033;-74
2022/09/13 00:47:37;;;;;;;5.78;3.45;;;16.50;99.90;;;;;;5071990;28;20028;-71
2022/09/13 00:50:13;;;;;;;8.27;4.10;;;16.60;99.90;;;;;;5071519;28;20040;-73
2022/09/13 00:52:41;;;;;;;7.38;3.97;;;16.50;99.90;;;;;;5071091;28;20020;-73
2022/09/13 00:55:35;;;;;;;6.05;3.95;;;16.50;99.90;;;;;;5073473;28;20460;-73
2022/09/13 00:58:12;;;;;;;5.85;3.47;;;16.50;99.90;;;;;;5075005;28;20089;-73
2022/09/13 01:00:39;;;;;;;7.38;3.63;;;16.50;99.90;;;;;;5075626;28;20039;-73
2022/09/13 01:03:10;;;;;;;8.95;3.50;;;16.50;99.90;;;;;;5075473;28;20411;-73
2022/09/13 01:05:41;;;;;;;5.00;3.60;;;16.50;99.90;;;;;;5075176;28;20055;-73
2022/09/13 01:08:11;;;;;;;10.30;3.63;;;16.50;99.90;;;;;;5075246;28;20029;-73
2022/09/13 01:10:39;;;;;;;7.43;3.88;;;16.50;99.90;;;;;;5074596;28;20056;-72
2022/09/13 01:13:13;;;;;;;11.35;3.80;;;16.50;99.90;;;;;;5075135;28;20024;-73
2022/09/13 01:15:40;;;;;;;5.07;3.60;;;16.50;99.90;;;;;;5074571;28;20029;-73
2022/09/13 01:18:07;;;;;;;6.03;3.28;;;16.50;99.90;;;;;;5075475;28;20033;-73
2022/09/13 01:21:11;;;;;;;9.63;4.78;;;16.50;99.90;;;;;;5074513;28;20051;-73
2022/09/13 01:23:40;;;;;;;7.43;3.90;;;16.40;99.90;;;;;;5074302;28;20033;-72
2022/09/13 01:26:11;;;;;;;6.10;3.97;;;16.40;99.90;;;;;;5075093;28;20108;-73
2022/09/13 01:28:46;;;;;;;7.18;4.25;;;16.40;99.90;;;;;;5074742;28;20036;-73
2022/09/13 01:31:22;;;;;;;5.50;3.38;;;16.30;99.90;;;;;;5074268;28;20052;-73
2022/09/13 01:34:03;;;;;;;6.80;3.85;;;16.30;99.90;;;;;;5074504;28;20306;-73
2022/09/13 01:36:34;;;;;;;8.57;4.43;;;16.30;99.90;;;;;;5074265;28;20105;-72
2022/09/13 01:39:16;;;;;;;7.32;4.03;;;16.20;99.90;;;;;;5074414;28;20429;-73
2022/09/13 01:42:17;;;;;;;7.03;4.35;;;16.20;99.90;;;;;;5073819;28;20040;-73
2022/09/13 01:45:11;;;;;;;6.75;3.92;;;16.20;99.90;;;;;;5057519;28;20033;-72
2022/09/13 01:47:49;;;;;;;6.57;3.60;;;16.10;99.90;;;;;;5074260;28;20025;-72
2022/09/13 01:50:57;;;;;;;5.63;3.30;;;16.10;99.90;;;;;;5074413;28;20039;-72
2022/09/13 01:53:41;;;;;;;8.40;3.90;;;16.00;99.90;;;;;;5050899;28;20064;-72
2022/09/13 01:56:17;;;;;;;6.35;3.88;;;16.00;99.90;;;;;;5074213;28;20528;-73
2022/09/13 01:59:29;;;;;;;6.03;4.00;;;16.00;99.90;;;;;;5074079;28;20525;-73
2022/09/13 02:02:02;;;;;;;6.20;3.58;;;15.90;99.90;;;;;;5054501;28;20347;-73
2022/09/13 02:04:35;;;;;;;7.47;4.20;;;15.80;99.90;;;;;;5074350;28;20203;-73
2022/09/13 02:07:02;;;;;;;7.70;3.85;;;15.80;99.90;;;;;;5073031;28;20377;-73
2022/09/13 02:09:33;;;;;;;7.43;4.53;;;15.70;99.90;;;;;;5074148;28;20047;-73
2022/09/13 02:12:18;;;;;;;5.68;3.80;;;15.70;99.90;;;;;;5074379;28;20085;-73
2022/09/13 02:14:48;;;;;;;6.65;4.10;;;15.70;99.90;;;;;;5073426;28;20108;-73
2022/09/13 02:17:21;;;;;;;5.63;4.07;;;15.60;99.90;;;;;;5073837;28;20033;-73
2022/09/13 02:20:04;;;;;;;6.10;4.13;;;15.70;99.90;;;;;;5073545;28;20032;-73
2022/09/13 02:22:39;;;;;;;7.85;4.00;;;15.70;99.90;;;;;;5073895;28;20392;-73
2022/09/13 02:25:25;;;;;;;8.65;4.60;;;15.70;99.90;;;;;;5073486;28;20545;-73
2022/09/13 02:28:00;;;;;;;5.32;3.92;;;15.70;99.90;;;;;;5073237;28;20025;-73
2022/09/13 02:30:27;;;;;;;9.98;4.53;;;15.70;99.90;;;;;;5073367;28;20029;-73
2022/09/13 02:32:52;;;;;;;6.43;3.70;;;15.70;99.90;;;;;;5073172;28;20079;-73
2022/09/13 02:35:24;;;;;;;8.68;4.25;;;15.60;99.90;;;;;;5073608;28;20040;-73
2022/09/13 02:37:57;;;;;;;4.80;3.75;;;15.60;99.90;;;;;;5072833;28;20182;-73
2022/09/13 02:40:26;;;;;;;6.03;3.90;;;15.60;99.90;;;;;;5073298;28;20377;-73
2022/09/13 02:43:00;;;;;;;11.30;4.22;;;15.50;99.90;;;;;;5072845;28;20036;-73
2022/09/13 02:45:35;;;;;;;7.38;4.35;;;15.50;99.90;;;;;;5073500;28;20483;-72
2022/09/13 02:48:28;;;;;;;7.97;3.97;;;15.50;99.90;;;;;;5073296;28;20062;-73
2022/09/13 02:51:06;;;;;;;8.07;4.35;;;15.40;99.90;;;;;;5066926;28;20053;-72
2022/09/13 02:53:44;;;;;;;9.07;4.47;;;15.40;99.90;;;;;;5055217;28;20032;-72
2022/09/13 02:56:17;;;;;;;6.82;4.47;;;15.40;99.90;;;;;;5072651;28;20028;-72
2022/09/13 02:59:07;;;;;;;6.18;4.20;;;15.40;99.90;;;;;;5072836;28;20361;-73
2022/09/13 03:01:36;;;;;;;4.35;3.45;;;15.30;99.90;;;;;;5072929;28;20098;-74
2022/09/13 03:04:02;;;;;;;8.18;3.30;;;15.30;99.90;;;;;;5072724;28;20028;-74
2022/09/13 03:06:28;;;;;;;7.65;3.90;;;15.20;99.90;;;;;;5072828;28;20128;-74
2022/09/13 03:08:57;;;;;;;7.63;3.95;;;15.20;99.90;;;;;;5072972;28;20358;-73
2022/09/13 03:11:29;;;;;;;6.30;4.25;;;15.20;99.90;;;;;;5072866;28;20028;-73
2022/09/13 03:14:04;;;;;;;8.77;4.00;;;15.20;99.90;;;;;;5071890;28;20095;-73
2022/09/13 03:17:00;;;;;;;7.13;3.88;;;15.10;99.90;;;;;;5072648;28;20129;-73
2022/09/13 03:19:39;;;;;;;7.97;4.10;;;15.10;99.90;;;;;;5072393;28;20045;-73
2022/09/13 03:22:22;;;;;;;8.55;4.05;;;15.10;99.90;;;;;;5072804;28;20033;-72
2022/09/13 03:24:57;;;;;;;9.82;3.85;;;15.10;99.90;;;;;;5072944;28;20477;-72
2022/09/13 03:27:28;;;;;;;8.20;3.95;;;15.10;99.90;;;;;;5072518;28;20078;-74
2022/09/13 03:30:02;;;;;;;5.80;4.07;;;15.10;99.90;;;;;;5072165;28;20059;-72
2022/09/13 03:32:34;;;;;;;6.22;3.75;;;15.00;99.90;;;;;;5072081;28;20060;-74
2022/09/13 03:35:15;;;;;;;8.52;4.03;;;15.00;99.90;;;;;;5071986;28;20036;-74
2022/09/13 03:38:02;;;;;;;5.90;3.88;;;15.00;99.90;;;;;;5071847;28;20075;-74
2022/09/13 03:40:43;;;;;;;20.73;4.18;;;14.90;99.90;;;;;;5072018;28;20036;-73
2022/09/13 03:43:20;;;;;;;6.22;4.03;;;15.00;99.90;;;;;;5072246;28;20036;-73
2022/09/13 03:45:53;;;;;;;6.65;3.97;;;15.00;99.90;;;;;;5071884;28;20135;-73
2022/09/13 03:48:21;;;;;;;7.00;3.83;;;14.90;99.90;;;;;;5072374;28;20040;-73
2022/09/13 03:50:48;;;;;;;5.97;4.07;;;14.90;99.90;;;;;;5071805;28;20052;-73
2022/09/13 03:53:20;;;;;;;6.80;4.15;;;14.90;99.90;;;;;;5072289;28;20100;-73
2022/09/13 03:55:46;;;;;;;7.63;4.47;;;14.80;99.90;;;;;;5071812;28;20046;-74
2022/09/13 03:58:14;;;;;;;8.18;4.00;;;14.80;99.90;;;;;;5071979;28;20016;-73
2022/09/13 04:00:40;;;;;;;6.82;4.18;;;14.80;99.90;;;;;;5071792;28;20068;-73
2022/09/13 04:03:06;;;;;;;6.22;3.92;;;14.80;99.90;;;;;;5072380;28;20401;-73
2022/09/13 04:05:35;;;;;;;5.93;3.83;;;14.80;99.90;;;;;;5071625;28;20039;-73
2022/09/13 04:08:03;;;;;;;5.75;3.83;;;14.80;99.90;;;;;;5071499;28;20108;-74
2022/09/13 04:10:30;;;;;;;8.35;3.70;;;14.80;99.90;;;;;;5071431;28;20032;-74
2022/09/13 04:12:56;;;;;;;5.28;3.85;;;14.80;99.90;;;;;;5071171;28;20028;-73
2022/09/13 04:15:23;;;;;;;5.70;3.28;;;14.70;99.90;;;;;;5053657;28;20025;-73
2022/09/13 04:17:49;;;;;;;6.00;4.18;;;14.80;99.90;;;;;;5070944;28;20480;-73
2022/09/13 04:20:15;;;;;;;4.47;3.70;;;14.80;99.90;;;;;;5071786;28;20024;-73
2022/09/13 04:22:41;;;;;;;5.22;3.67;;;14.80;99.90;;;;;;5071324;28;20038;-72
2022/09/13 04:25:07;;;;;;;7.30;3.72;;;14.80;99.90;;;;;;5071518;28;20035;-72
2022/09/13 04:27:34;;;;;;;9.77;4.53;;;14.80;99.90;;;;;;5071675;28;20104;-73
2022/09/13 04:30:01;;;;;;;5.00;3.53;;;14.80;99.90;;;;;;5071229;28;20021;-72
2022/09/13 04:32:27;;;;;;;7.40;4.50;;;14.90;99.90;;;;;;5071733;28;20131;-73
2022/09/13 04:34:53;;;;;;;6.00;4.00;;;14.80;99.90;;;;;;5071047;28;20099;-73
2022/09/13 04:37:19;;;;;;;6.35;4.00;;;14.90;99.90;;;;;;5071823;28;20027;-72
2022/09/13 04:39:45;;;;;;;6.30;3.92;;;14.90;99.90;;;;;;5071250;28;20056;-72
2022/09/13 04:42:11;;;;;;;6.05;4.10;;;15.00;99.90;;;;;;5071678;28;20064;-73
2022/09/13 04:44:37;;;;;;;9.98;4.70;;;15.00;99.90;;;;;;5071574;28;20029;-73
2022/09/13 04:47:03;;;;;;;7.75;4.30;;;15.00;99.90;;;;;;5070971;28;20027;-72
2022/09/13 04:49:29;;;;;;;6.55;3.88;;;15.00;99.90;;;;;;5071680;28;20036;-72
2022/09/13 04:51:55;;;;;;;6.47;4.18;;;15.00;99.90;;;;;;5071317;28;20036;-73
2022/09/13 04:54:21;;;;;;;7.72;4.20;;;14.90;99.90;;;;;;5071633;28;20384;-72
2022/09/13 04:56:47;;;;;;;6.43;3.78;;;14.90;99.90;;;;;;5071154;28;20158;-73
2022/09/13 04:59:13;;;;;;;8.80;4.40;;;14.90;99.90;;;;;;5071839;28;20040;-73
2022/09/13 05:01:39;;;;;;;10.20;4.55;;;14.80;99.90;;;;;;5071190;28;20431;-73
2022/09/13 05:04:09;;;;;;;6.28;4.03;;;14.80;99.90;;;;;;5070922;28;20044;-73
2022/09/13 05:06:35;;;;;;;6.88;4.75;;;14.70;99.90;;;;;;5071376;28;20380;-73
2022/09/13 05:09:01;;;;;;;6.70;4.28;;;14.70;99.90;;;;;;5071026;28;20473;-73
2022/09/13 05:11:27;;;;;;;7.15;4.78;;;14.80;99.90;;;;;;5070972;28;20051;-73
2022/09/13 05:13:55;;;;;;;7.45;5.57;;;14.70;99.90;;;;;;5070619;28;20025;-73
2022/09/13 05:16:23;;;;;;;9.40;4.88;;;14.70;99.90;;;;;;5071292;28;20032;-73
2022/09/13 05:18:50;;;;;;;5.63;4.45;;;14.80;99.90;;;;;;5070663;28;20025;-72
2022/09/13 05:21:16;;;;;;;7.32;4.72;;;14.80;99.90;;;;;;5071271;28;20036;-74
2022/09/13 05:23:41;;;;;;;8.23;4.95;;;14.90;99.90;;;;;;5071005;28;20032;-74
2022/09/13 05:26:07;;;;;;;9.43;4.80;;;14.90;99.90;;;;;;5070816;28;20441;-73
2022/09/13 05:31:25;;;;;;;11.90;5.75;;;15.00;99.90;;;;;;5071047;28;20374;-73
2022/09/13 05:34:01;;;;;;;6.30;4.57;;;15.00;99.90;;;;;;5070648;28;20389;-72
2022/09/13 05:36:27;;;;;;;8.55;5.00;;;15.00;99.90;;;;;;5071100;28;20051;-72
2022/09/13 05:38:54;;;;;;;6.03;4.78;;;15.00;99.90;;;;;;5070907;28;20097;-73
2022/09/13 05:41:20;;;;;;;9.02;5.20;;;15.10;99.90;;;;;;5072835;28;20040;-73
2022/09/13 05:43:46;;;;;;;6.75;4.50;;;15.10;99.90;;;;;;5074427;28;20395;-72
2022/09/13 05:46:14;;;;;;;6.22;4.45;;;15.10;99.90;;;;;;5074696;28;20445;-72
2022/09/13 05:48:40;;;;;;;6.97;4.72;;;15.20;99.90;;;;;;5074251;28;20055;-74
2022/09/13 05:51:11;;;;;;;8.13;4.45;;;15.20;99.90;;;;;;5073805;28;20025;-74
2022/09/13 05:53:38;;;;;;;11.07;4.80;;;15.20;99.90;;;;;;5074311;28;20111;-72
2022/09/13 05:56:08;;;;;;;5.80;4.35;;;15.30;99.90;;;;;;5073475;28;20040;-72
2022/09/13 05:58:38;;;;;;;9.13;5.10;;;15.30;99.90;;;;;;5074492;28;20021;-72
2022/09/13 06:01:04;;;;;;;10.82;4.93;;;15.40;99.90;;;;;;5073607;28;20081;-73
2022/09/13 06:03:30;;;;;;;10.20;5.47;;;15.40;99.90;;;;;;5074000;28;20032;-73
2022/09/13 06:05:57;;;;;;;7.60;5.05;;;15.50;99.90;;;;;;5073712;28;20442;-73
2022/09/13 06:08:28;;;;;;;9.73;5.15;;;15.50;99.90;;;;;;5073831;28;20029;-74
2022/09/13 06:11:05;;;;;;;8.00;4.40;;;15.60;99.90;;;;;;5073728;28;20037;-73
2022/09/13 06:13:31;;;;;;;10.60;5.13;;;15.70;99.90;;;;;;5074279;28;20478;-73
2022/09/13 06:15:59;;;;;;;9.18;4.72;;;15.70;99.90;;;;;;5073856;28;20048;-73
2022/09/13 06:18:25;;;;;;;7.60;4.88;;;15.80;99.90;;;;;;5074239;28;20078;-73
2022/09/13 06:20:56;;;;;;;6.40;4.65;;;15.80;99.90;;;;;;5073099;28;20032;-71
2022/09/13 06:23:21;;;;;;;8.40;4.80;;;15.90;99.90;;;;;;5073318;28;20100;-73
2022/09/13 06:25:47;;;;;;;8.20;4.80;;;16.00;99.90;;;;;;5073739;28;20077;-73
2022/09/13 06:28:13;;;;;;;6.97;4.85;;;16.00;99.90;;;;;;5073287;28;20016;-73
2022/09/13 06:30:38;;;;;;;7.40;4.85;;;16.10;99.90;;;;;;5073640;28;20362;-73
2022/09/13 06:33:04;;;;;;;8.10;5.18;;;16.10;99.90;;;;;;5072454;28;20063;-73
2022/09/13 06:35:29;;;;;;;6.63;4.70;;;16.20;99.90;;;;;;5073897;28;20062;-73
2022/09/13 06:37:57;;;;;;;8.45;5.88;;;16.30;99.90;;;;;;5073391;28;20456;-73
2022/09/13 06:40:23;;;;;;;6.43;4.30;;;16.40;99.90;;;;;;5073773;28;20024;-73
2022/09/13 06:42:49;;;;;;;5.65;3.65;;;16.50;99.90;;;;;;5073618;28;20391;-73
2022/09/13 06:45:14;;;;;;;5.53;2.95;;;16.60;99.90;;;;;;5073587;28;20047;-73
2022/09/13 06:47:40;;;;;;;4.22;3.47;;;16.90;99.40;;;;;;5073801;28;20091;-74
2022/09/13 06:50:06;;;;;;;7.30;4.40;;;17.20;99.80;;;;;;5076171;28;20040;-74
2022/09/13 06:52:32;;;;;;;7.20;4.05;;;17.50;99.50;;;;;;5079209;28;20433;-72
2022/09/13 06:54:58;;;;;;;8.27;4.57;;;17.80;98.00;;;;;;5074657;28;20044;-72
2022/09/13 06:57:24;;;;;;;7.43;3.92;;;18.20;96.50;;;;;;5073197;28;20377;-72
2022/09/13 06:59:49;;;;;;;6.65;3.85;;;18.60;95.90;;;;;;5073234;28;20078;-72
2022/09/13 07:02:15;;;;;;;5.53;2.88;;;19.10;94.10;;;;;;5072366;28;20107;-72
2022/09/13 07:04:41;;;;;;;3.95;3.10;;;19.50;91.20;;;;;;5072923;28;20033;-72
2022/09/13 07:07:06;;;;;;;3.20;2.83;;;20.20;89.60;;;;;;5072725;28;20027;-72
2022/09/13 07:09:35;;;;;;;3.55;2.00;;;20.90;81.20;;;;;;5072993;28;20055;-72
2022/09/13 07:12:01;;;;;;;3.10;2.15;;;21.80;75.00;;;;;;5072398;28;20043;-72
2022/09/13 07:14:28;;;;;;;3.47;2.00;;;22.90;70.00;;;;;;5072822;28;20029;-73
2022/09/13 07:16:54;;;;;;;3.22;2.25;;;24.00;63.50;;;;;;5072407;28;20036;-72
2022/09/13 07:19:22;;;;;;;2.40;1.63;;;24.80;62.50;;;;;;5072759;28;20025;-73
2022/09/13 07:21:48;;;;;;;2.28;1.75;;;25.60;60.20;;;;;;5072642;28;20029;-73
2022/09/13 07:24:18;;;;;;;3.83;2.42;;;26.30;55.20;;;;;;5072278;28;20036;-73
2022/09/13 07:26:45;;;;;;;3.42;2.45;;;26.90;54.40;;;;;;5072602;28;20060;-74
2022/09/13 07:29:17;;;;;;;2.95;1.45;;;27.50;50.30;;;;;;5072292;28;20070;-73
2022/09/13 07:31:46;;;;;;;4.68;1.85;;;27.80;50.10;;;;;;5072235;28;20082;-73
2022/09/13 07:34:16;;;;;;;4.47;1.58;;;28.30;48.80;;;;;;5072000;28;20035;-73
2022/09/13 07:36:43;;;;;;;2.13;1.92;;;28.90;46.60;;;;;;5072638;28;20104;-73
2022/09/13 07:39:09;;;;;;;1.98;1.60;;;29.10;46.00;;;;;;5071726;28;20362;-73
2022/09/13 07:41:36;;;;;;;2.90;1.70;;;29.10;45.00;;;;;;5072359;28;20039;-73
2022/09/13 07:44:03;;;;;;;4.03;1.80;;;29.20;46.70;;;;;;5072050;28;20029;-73
2022/09/13 07:46:31;;;;;;;2.10;1.60;;;29.70;45.50;;;;;;5072138;28;20024;-73
2022/09/13 07:48:58;;;;;;;2.65;2.25;;;29.90;44.80;;;;;;5071752;28;20050;-70
2022/09/13 07:51:29;;;;;;;2.58;1.77;;;30.00;43.80;;;;;;5072190;28;20107;-72
2022/09/13 07:54:02;;;;;;;2.95;2.05;;;29.80;44.10;;;;;;5071940;28;20032;-74
2022/09/13 07:56:33;;;;;;;2.83;1.70;;;29.80;44.30;;;;;;5071954;28;20170;-72
2022/09/13 07:59:00;;;;;;;5.53;1.88;;;29.80;43.60;;;;;;5072040;28;20352;-71
2022/09/13 08:01:28;;;;;;;2.22;1.77;;;29.80;43.20;;;;;;5071586;28;20127;-72
2022/09/13 08:03:57;;;;;;;1.85;1.52;;;29.70;43.30;;;;;;5071357;28;20522;-72
2022/09/13 08:06:24;;;;;;;1.70;1.35;;;30.00;43.20;;;;;;5071782;28;20364;-72
2022/09/13 08:08:50;;;;;;;1.77;1.50;;;30.70;42.50;;;;;;5071639;28;20012;-73
2022/09/13 08:11:21;;;;;;;4.07;2.30;;;31.20;41.20;;;;;;5071293;28;20036;-73
2022/09/13 08:13:48;;;;;;;3.95;2.05;;;31.70;41.50;;;;;;5071593;28;20024;-73
2022/09/13 08:16:15;;;;;;;5.22;1.60;;;31.90;40.50;;;;;;5071493;28;20050;-73
2022/09/13 08:18:46;;;;;;;4.30;1.48;;;32.30;40.00;;;;;;5071564;28;20077;-73
2022/09/13 08:21:12;;;;;;;1.92;1.50;;;32.50;38.90;;;;;;5071477;28;20028;-73
2022/09/13 08:23:38;;;;;;;1.65;1.27;;;32.50;38.60;;;;;;5072058;28;20029;-73
2022/09/13 08:26:06;;;;;;;4.25;1.83;;;32.50;38.30;;;;;;5071243;28;20043;-73
2022/09/13 08:28:34;;;;;;;1.88;1.60;;;32.20;37.60;;;;;;5071638;28;20032;-73
2022/09/13 08:31:16;;;;;;;2.08;1.63;;;31.40;39.40;;;;;;5074072;28;20048;-72
2022/09/13 08:33:47;;;;;;;2.55;1.85;;;30.50;40.30;;;;;;5091952;28;20033;-73
2022/09/13 08:36:13;;;;;;;3.38;1.88;;;29.50;42.20;;;;;;5091815;28;20373;-72
2022/09/13 08:38:39;;;;;;;2.80;2.10;;;28.90;43.20;;;;;;5092184;28;20527;-74
2022/09/13 08:41:33;;;;;;;3.80;2.00;;;28.20;44.00;;;;;;5091577;28;20116;-72
2022/09/13 08:44:03;;;;;;;5.68;2.35;;;27.30;45.40;;;;;;5091601;28;20024;-69
2022/09/13 08:46:34;;;;;;;2.78;1.98;;;26.90;46.80;;;;;;5091939;28;20024;-73
2022/09/13 08:49:11;;;;;;;2.30;1.83;;;26.50;48.20;;;;;;5091692;28;20024;-69
2022/09/13 08:51:41;;;;;;;2.40;2.00;;;26.20;48.80;;;;;;5091686;28;20031;-73
2022/09/13 08:54:12;;;;;;;2.53;1.90;;;26.00;49.60;;;;;;5091478;28;20020;-72
2022/09/13 08:57:08;;;;;;;3.20;2.13;;;25.90;50.60;;;;;;5092089;28;20443;-74
2022/09/13 08:59:50;;;;;;;4.78;2.35;;;25.70;50.20;;;;;;5091929;28;20025;-73
2022/09/13 09:02:16;;;;;;;3.20;2.15;;;25.40;51.40;;;;;;5074017;28;20028;-73
2022/09/13 09:04:55;;;;;;;3.08;1.88;;;25.40;52.00;;;;;;5091662;28;20028;-73
2022/09/13 09:07:29;;;;;;;4.22;1.80;;;25.20;51.90;;;;;;5073150;28;20032;-73
2022/09/13 09:10:12;;;;;;;2.58;2.20;;;25.10;52.40;;;;;;5073486;28;20024;-73
2022/09/13 09:13:08;;;;;;;3.10;2.35;;;24.90;52.00;;;;;;5092192;28;20032;-73
2022/09/13 09:15:47;;;;;;;2.83;2.17;;;24.90;53.00;;;;;;5092584;28;20028;-73
2022/09/13 09:18:13;;;;;;;3.92;1.83;;;24.90;53.30;;;;;;5094890;28;20475;-73
2022/09/13 09:20:45;;;;;;;7.97;2.17;;;24.90;53.70;;;;;;5095286;28;20024;-72
2022/09/13 09:23:17;;;;;;;3.50;1.88;;;24.90;53.60;;;;;;5094794;28;20085;-72
2022/09/13 09:25:43;;;;;;;2.22;1.92;;;25.00;53.60;;;;;;5095252;28;20032;-73
2022/09/13 09:28:14;;;;;;;4.72;1.98;;;25.00;53.10;;;;;;5094386;28;20028;-72
2022/09/13 09:31:02;;;;;;;3.28;2.13;;;25.00;52.70;;;;;;5095385;28;20352;-72
2022/09/13 09:34:18;;;;;;;3.88;1.80;;;24.80;52.00;;;;;;5074811;28;20491;-73
2022/09/13 09:36:55;;;;;;;2.67;2.05;;;24.90;52.80;;;;;;5012446;28;20034;-72
2022/09/13 09:39:21;;;;;;;4.13;2.00;;;24.90;53.60;;;;;;5072377;28;20079;-73
2022/09/13 09:41:46;;;;;;;3.42;2.00;;;24.90;52.80;;;;;;5074495;28;20035;-73
2022/09/13 09:44:15;;;;;;;2.75;2.10;;;24.80;53.50;;;;;;5073741;28;20028;-72
2022/09/13 09:46:42;;;;;;;3.22;2.25;;;24.80;53.60;;;;;;5074128;28;20033;-72
2022/09/13 09:52:21;;;;;;;4.93;2.15;;;25.10;54.90;;;;;;5073881;28;20485;-71
2022/09/13 09:54:49;;;;;;;2.45;1.88;;;25.30;54.20;;;;;;5073656;28;20424;-73
2022/09/13 09:57:17;;;;;;;2.95;1.90;;;25.40;53.50;;;;;;5073579;28;20488;-72
2022/09/13 09:59:43;;;;;;;2.47;1.73;;;25.50;53.40;;;;;;5074581;28;20017;-72
2022/09/13 10:02:20;;;;;;;2.38;2.00;;;25.50;52.60;;;;;;5073617;28;20412;-71
2022/09/13 10:04:58;;;;;;;2.40;1.70;;;25.60;52.90;;;;;;5074135;28;20024;-72
2022/09/13 10:07:33;;;;;;;2.15;1.60;;;25.70;52.30;;;;;;5073451;28;20032;-72
2022/09/13 10:10:07;;;;;;;2.58;1.85;;;25.50;51.80;;;;;;5073761;28;20033;-72
2022/09/13 10:12:36;;;;;;;3.45;2.00;;;25.50;52.20;;;;;;5074060;28;20055;-72
2022/09/13 10:15:14;;;;;;;2.30;1.80;;;25.50;52.60;;;;;;5073790;28;20029;-72
2022/09/13 10:17:40;;;;;;;5.35;1.95;;;25.50;52.80;;;;;;5073579;28;20020;-72
2022/09/13 10:20:12;;;;;;;2.75;2.00;;;25.50;53.10;;;;;;5073530;28;20043;-70
2022/09/13 10:22:37;;;;;;;2.50;2.00;;;25.50;51.70;;;;;;5073932;28;20060;-72
2022/09/13 10:25:23;;;;;;;2.92;1.67;;;25.50;52.70;;;;;;5073663;28;20063;-72
2022/09/13 10:27:55;;;;;;;2.53;1.83;;;25.50;53.30;;;;;;5072907;28;20036;-72
2022/09/13 10:30:45;;;;;;;2.72;1.80;;;25.60;52.60;;;;;;5072802;28;20307;-72
2022/09/13 10:33:38;;;;;;;5.20;2.15;;;25.60;52.80;;;;;;5080952;28;20093;-71
2022/09/13 10:36:17;;;;;;;5.63;1.90;;;25.50;51.80;;;;;;5095316;28;20044;-71
2022/09/13 10:39:00;;;;;;;2.90;1.85;;;25.50;52.50;;;;;;5095987;28;20032;-71
2022/09/13 10:41:29;;;;;;;3.97;2.20;;;25.50;52.00;;;;;;5092980;28;20027;-72
2022/09/13 10:44:04;;;;;;;3.72;2.10;;;25.50;51.80;;;;;;5093656;28;20028;-72
2022/09/13 10:46:34;;;;;;;3.80;1.80;;;25.40;51.90;;;;;;5093326;28;20024;-73
2022/09/13 10:49:00;;;;;;;3.35;2.00;;;25.50;52.90;;;;;;5093726;28;20073;-73
2022/09/13 10:51:26;;;;;;;2.50;2.13;;;25.60;53.00;;;;;;5092965;28;20024;-72
2022/09/13 10:54:14;;;;;;;3.63;2.70;;;25.70;52.40;;;;;;5093132;28;20478;-72
2022/09/13 10:56:40;;;;;;;2.58;1.60;;;25.80;52.00;;;;;;5076076;28;20449;-72
2022/09/13 10:59:29;;;;;;;5.28;2.75;;;25.80;51.70;;;;;;5093220;28;20039;-72
2022/09/13 11:02:25;;;;;;;2.95;2.03;;;25.90;51.40;;;;;;5093056;28;20062;-73
2022/09/13 11:05:15;;;;;;;1.98;1.77;;;26.00;51.30;;;;;;5093482;28;20032;-72
2022/09/13 11:07:58;;;;;;;3.05;2.20;;;26.00;50.90;;;;;;5093452;28;20059;-73
2022/09/13 11:10:30;;;;;;;2.80;1.77;;;26.00;50.10;;;;;;5092900;28;20068;-73
2022/09/13 11:13:25;;;;;;;3.40;2.00;;;26.10;51.30;;;;;;5092969;28;20452;-72
2022/09/13 11:16:26;;;;;;;2.00;1.75;;;26.20;51.50;;;;;;5093261;28;20028;-73
2022/09/13 11:19:04;;;;;;;2.30;1.85;;;26.40;51.80;;;;;;5093106;28;20102;-74
2022/09/13 11:21:47;;;;;;;5.75;2.10;;;26.50;50.90;;;;;;5092270;28;20039;-71
2022/09/13 11:24:39;;;;;;;2.33;1.65;;;26.60;50.30;;;;;;5092160;28;20024;-71
2022/09/13 11:27:29;;;;;;;2.70;1.95;;;26.70;49.90;;;;;;5092483;28;20032;-71
2022/09/13 11:30:22;;;;;;;2.37;1.80;;;26.80;49.30;;;;;;5092398;28;20062;-73
2022/09/13 11:33:06;;;;;;;2.97;1.75;;;26.90;49.30;;;;;;5092710;28;20127;-72
2022/09/13 11:35:46;;;;;;;2.88;1.77;;;27.00;49.40;;;;;;5091989;28;20031;-73
2022/09/13 11:38:35;;;;;;;2.08;1.67;;;27.10;49.20;;;;;;5091378;28;20024;-70
2022/09/13 11:41:15;;;;;;;2.97;1.95;;;27.20;49.10;;;;;;5092223;28;20043;-72
2022/09/13 11:44:17;;;;;;;3.80;1.75;;;27.20;48.50;;;;;;5092487;28;20042;-72
2022/09/13 11:46:51;;;;;;;2.10;1.60;;;27.30;47.60;;;;;;5092537;28;20105;-72
2022/09/13 11:49:25;;;;;;;2.20;1.90;;;27.10;46.40;;;;;;5092373;28;20373;-73
2022/09/13 11:52:26;;;;;;;2.00;1.50;;;26.90;46.40;;;;;;5092114;28;20036;-72
2022/09/13 11:54:54;;;;;;;3.05;1.80;;;26.90;47.30;;;;;;5092186;28;20024;-73
2022/09/13 11:57:25;;;;;;;1.60;1.50;;;27.00;47.40;;;;;;5091812;28;20028;-72
2022/09/13 12:00:14;;;;;;;3.72;2.05;;;26.90;46.20;;;;;;5091858;28;20078;-74
2022/09/13 12:02:48;;;;;;;2.30;1.92;;;26.80;46.20;;;;;;5091278;28;20023;-73
2022/09/13 12:05:20;;;;;;;3.72;1.98;;;26.70;47.00;;;;;;5073911;28;20397;-71
2022/09/13 12:07:51;;;;;;;5.00;2.30;;;26.80;47.40;;;;;;5092415;28;20024;-73
2022/09/13 12:10:32;;;;;;;3.47;1.73;;;26.70;46.30;;;;;;5092023;28;20051;-72
2022/09/13 12:13:01;;;;;;;2.13;1.55;;;26.50;47.40;;;;;;5092508;28;20032;-73
2022/09/13 12:15:36;;;;;;;5.75;1.67;;;26.60;48.20;;;;;;5091610;28;20078;-73
2022/09/13 12:18:13;;;;;;;3.63;2.10;;;26.60;47.00;;;;;;5091808;28;20027;-73
2022/09/13 12:20:45;;;;;;;3.47;2.00;;;26.40;46.70;;;;;;5091415;28;20529;-73
2022/09/13 12:23:18;;;;;;;3.55;1.80;;;26.40;46.80;;;;;;5092047;28;20064;-72
2022/09/13 12:25:46;;;;;;;3.17;2.05;;;26.30;48.00;;;;;;5092109;28;20120;-72
2022/09/13 12:28:21;;;;;;;4.53;2.00;;;26.30;47.80;;;;;;5092339;28;20020;-72
2022/09/13 12:31:18;;;;;;;2.42;1.80;;;26.30;49.00;;;;;;5092019;28;20468;-72
2022/09/13 12:33:45;;;;;;;3.15;1.98;;;26.30;48.70;;;;;;5085116;28;20033;-72
2022/09/13 12:36:32;;;;;;;2.17;1.50;;;26.20;48.10;;;;;;5091986;28;20129;-73
2022/09/13 12:39:26;;;;;;;2.75;1.75;;;26.10;48.40;;;;;;5092014;28;20025;-72
2022/09/13 12:42:00;;;;;;;2.20;1.45;;;26.00;48.40;;;;;;5091677;28;20070;-72
2022/09/13 12:44:48;;;;;;;2.10;1.90;;;25.90;48.40;;;;;;5091325;28;20406;-72
2022/09/13 12:47:51;;;;;;;2.40;1.70;;;25.80;48.50;;;;;;5091285;28;20056;-72
2022/09/13 12:50:29;;;;;;;2.40;1.90;;;25.70;48.70;;;;;;5093303;28;20032;-70
2022/09/13 12:53:01;;;;;;;2.13;1.92;;;25.60;48.80;;;;;;5095778;28;20028;-72
2022/09/13 12:55:34;;;;;;;3.88;1.98;;;25.50;48.70;;;;;;5095303;28;20403;-71
2022/09/13 12:58:37;;;;;;;3.90;2.10;;;25.40;48.80;;;;;;5095653;28;20032;-73
2022/09/13 13:01:20;;;;;;;2.60;1.88;;;25.20;49.70;;;;;;5095389;28;20039;-72
2022/09/13 13:03:55;;;;;;;2.97;2.00;;;25.10;49.50;;;;;;5095481;28;20099;-72
2022/09/13 13:06:32;;;;;;;4.40;2.17;;;25.10;50.20;;;;;;5094853;28;20025;-71
2022/09/13 13:09:05;;;;;;;2.35;1.70;;;25.00;50.30;;;;;;5095490;28;20035;-72
2022/09/13 13:11:43;;;;;;;4.20;2.10;;;24.90;50.50;;;;;;5095161;28;20134;-72
2022/09/13 13:14:27;;;;;;;4.32;2.15;;;24.90;50.70;;;;;;5095576;28;20119;-72
2022/09/13 13:16:52;;;;;;;3.35;2.22;;;24.70;50.80;;;;;;5095366;28;20549;-72
2022/09/13 13:19:32;;;;;;;3.33;2.15;;;24.70;51.00;;;;;;5095388;28;20058;-73
2022/09/13 13:22:36;;;;;;;3.85;2.00;;;24.70;51.20;;;;;;5095280;28;20032;-71